sensor_id;sensor_type;location;lat;lon;timestamp;temperature;humidity
26063;DHT22;13837;48.562;12.108;2022-08-21T00:02:14;16.00;99.90
26063;DHT22;13837;48.562;12.108;2022-08-21T00:04:40;16.00;99.90
26063;DHT22;13837;48.562;12.108;2022-08-21T00:07:06;16.00;99.90
26063;DHT22;13837;48.562;12.108;2022-08-21T00:09:32;16.00;99.90
26063;DHT22;13837;48.562;12.108;2022-08-21T00:11:57;16.10;99.90
26063;DHT22;13837;48.562;12.108;2022-08-21T00:14:23;16.00;99.90
26063;DHT22;13837;48.562;12.108;2022-08-21T00:16:49;16.00;99.90
26063;DHT22;13837;48.562;12.108;2022-08-21T00:19:15;16.00;99.90
26063;DHT22;13837;48.562;12.108;2022-08-21T00:21:41;16.00;99.90
26063;DHT22;13837;48.562;12.108;2022-08-21T00:24:07;15.90;99.90
26063;DHT22;13837;48.562;12.108;2022-08-21T00:26:32;15.90;99.90
26063;DHT22;13837;48.562;12.108;2022-08-21T00:28:58;15.90;99.90
26063;DHT22;13837;48.562;12.108;2022-08-21T00:31:24;15.90;99.90
26063;DHT22;13837;48.562;12.108;2022-08-21T00:33:50;15.90;99.90
26063;DHT22;13837;48.562;12.108;2022-08-21T00:36:15;15.80;99.90
26063;DHT22;13837;48.562;12.108;2022-08-21T00:38:41;15.80;99.90
26063;DHT22;13837;48.562;12.108;2022-08-21T00:41:10;15.80;99.90
26063;DHT22;13837;48.562;12.108;2022-08-21T00:43:38;15.80;99.90
26063;DHT22;13837;48.562;12.108;2022-08-21T00:46:05;15.80;99.90
26063;DHT22;13837;48.562;12.108;2022-08-21T00:48:32;15.80;99.90
26063;DHT22;13837;48.562;12.108;2022-08-21T00:51:00;15.80;99.90
26063;DHT22;13837;48.562;12.108;2022-08-21T00:53:28;15.90;99.90
26063;DHT22;13837;48.562;12.108;2022-08-21T00:55:55;15.90;99.90
26063;DHT22;13837;48.562;12.108;2022-08-21T00:58:21;15.90;99.90
26063;DHT22;13837;48.562;12.108;2022-08-21T01:00:49;15.90;99.90
26063;DHT22;13837;48.562;12.108;2022-08-21T01:03:17;15.90;99.90
26063;DHT22;13837;48.562;12.108;2022-08-21T01:05:44;15.90;99.90
26063;DHT22;13837;48.562;12.108;2022-08-21T01:08:12;16.00;99.90
26063;DHT22;13837;48.562;12.108;2022-08-21T01:10:39;16.00;99.90
26063;DHT22;13837;48.562;12.108;2022-08-21T01:13:08;16.00;99.90
26063;DHT22;13837;48.562;12.108;2022-08-21T01:15:38;16.00;99.90
26063;DHT22;13837;48.562;12.108;2022-08-21T01:18:07;16.10;99.90
26063;DHT22;13837;48.562;12.108;2022-08-21T01:20:34;16.10;99.90
26063;DHT22;13837;48.562;12.108;2022-08-21T01:23:02;16.10;99.90
26063;DHT22;13837;48.562;12.108;2022-08-21T01:25:28;16.10;99.90
26063;DHT22;13837;48.562;12.108;2022-08-21T01:27:55;16.10;99.90
26063;DHT22;13837;48.562;12.108;2022-08-21T01:30:24;16.20;99.90
26063;DHT22;13837;48.562;12.108;2022-08-21T01:32:51;16.20;99.90
26063;DHT22;13837;48.562;12.108;2022-08-21T01:35:19;16.20;99.90
26063;DHT22;13837;48.562;12.108;2022-08-21T01:37:45;16.10;99.90
26063;DHT22;13837;48.562;12.108;2022-08-21T01:40:12;16.20;99.90
26063;DHT22;13837;48.562;12.108;2022-08-21T01:42:38;16.20;99.90
26063;DHT22;13837;48.562;12.108;2022-08-21T01:45:06;16.20;99.90
26063;DHT22;13837;48.562;12.108;2022-08-21T01:47:32;16.20;99.90
26063;DHT22;13837;48.562;12.108;2022-08-21T01:49:58;16.20;99.90
26063;DHT22;13837;48.562;12.108;2022-08-21T01:52:24;16.10;99.90
26063;DHT22;13837;48.562;12.108;2022-08-21T01:54:49;16.10;99.90
26063;DHT22;13837;48.562;12.108;2022-08-21T01:57:15;16.10;99.90
26063;DHT22;13837;48.562;12.108;2022-08-21T01:59:41;16.10;99.90
26063;DHT22;13837;48.562;12.108;2022-08-21T02:02:07;16.10;99.90
26063;DHT22;13837;48.562;12.108;2022-08-21T02:04:33;16.10;99.90
26063;DHT22;13837;48.562;12.108;2022-08-21T02:07:00;16.10;99.90
26063;DHT22;13837;48.562;12.108;2022-08-21T02:09:26;16.10;99.90
26063;DHT22;13837;48.562;12.108;2022-08-21T02:11:52;16.10;99.90
26063;DHT22;13837;48.562;12.108;2022-08-21T02:14:19;16.10;99.90
26063;DHT22;13837;48.562;12.108;2022-08-21T02:16:45;16.10;99.90
26063;DHT22;13837;48.562;12.108;2022-08-21T02:19:13;16.10;99.90
26063;DHT22;13837;48.562;12.108;2022-08-21T02:21:40;16.10;99.90
26063;DHT22;13837;48.562;12.108;2022-08-21T02:24:06;16.10;99.90
26063;DHT22;13837;48.562;12.108;2022-08-21T02:34:21;16.10;99.90
26063;DHT22;13837;48.562;12.108;2022-08-21T02:36:47;16.10;99.90
26063;DHT22;13837;48.562;12.108;2022-08-21T02:39:13;16.10;99.90
26063;DHT22;13837;48.562;12.108;2022-08-21T02:41:39;16.00;99.90
26063;DHT22;13837;48.562;12.108;2022-08-21T02:44:05;16.00;99.90
26063;DHT22;13837;48.562;12.108;2022-08-21T02:46:30;16.00;99.90
26063;DHT22;13837;48.562;12.108;2022-08-21T02:48:57;16.00;99.90
26063;DHT22;13837;48.562;12.108;2022-08-21T02:51:23;16.00;99.90
26063;DHT22;13837;48.562;12.108;2022-08-21T03:01:33;15.90;99.90
26063;DHT22;13837;48.562;12.108;2022-08-21T03:03:59;15.90;99.90
26063;DHT22;13837;48.562;12.108;2022-08-21T03:06:25;15.80;99.90
26063;DHT22;13837;48.562;12.108;2022-08-21T03:08:50;15.90;99.90
26063;DHT22;13837;48.562;12.108;2022-08-21T03:11:16;15.80;99.90
26063;DHT22;13837;48.562;12.108;2022-08-21T03:13:43;15.80;99.90
26063;DHT22;13837;48.562;12.108;2022-08-21T03:16:09;15.80;99.90
26063;DHT22;13837;48.562;12.108;2022-08-21T03:18:35;15.80;99.90
26063;DHT22;13837;48.562;12.108;2022-08-21T03:21:01;15.80;99.90
26063;DHT22;13837;48.562;12.108;2022-08-21T03:23:26;15.70;99.90
26063;DHT22;13837;48.562;12.108;2022-08-21T03:25:52;15.70;99.90
26063;DHT22;13837;48.562;12.108;2022-08-21T03:28:21;15.70;99.90
26063;DHT22;13837;48.562;12.108;2022-08-21T03:30:49;15.80;99.90
26063;DHT22;13837;48.562;12.108;2022-08-21T03:33:16;15.80;99.90
26063;DHT22;13837;48.562;12.108;2022-08-21T03:35:43;15.70;99.90
26063;DHT22;13837;48.562;12.108;2022-08-21T03:38:09;15.80;99.90
26063;DHT22;13837;48.562;12.108;2022-08-21T03:40:35;15.80;99.90
26063;DHT22;13837;48.562;12.108;2022-08-21T03:43:01;15.80;99.90
26063;DHT22;13837;48.562;12.108;2022-08-21T03:45:26;15.80;99.90
26063;DHT22;13837;48.562;12.108;2022-08-21T03:47:54;15.80;99.90
26063;DHT22;13837;48.562;12.108;2022-08-21T03:50:21;15.70;99.90
26063;DHT22;13837;48.562;12.108;2022-08-21T03:52:47;15.70;99.90
26063;DHT22;13837;48.562;12.108;2022-08-21T03:55:13;15.60;99.90
26063;DHT22;13837;48.562;12.108;2022-08-21T03:57:39;15.60;99.90
26063;DHT22;13837;48.562;12.108;2022-08-21T04:00:05;15.50;99.90
26063;DHT22;13837;48.562;12.108;2022-08-21T04:02:33;15.50;99.90
26063;DHT22;13837;48.562;12.108;2022-08-21T04:04:59;15.60;99.90
26063;DHT22;13837;48.562;12.108;2022-08-21T04:07:25;15.60;99.90
26063;DHT22;13837;48.562;12.108;2022-08-21T04:09:51;15.60;99.90
26063;DHT22;13837;48.562;12.108;2022-08-21T04:12:16;15.50;99.90
26063;DHT22;13837;48.562;12.108;2022-08-21T04:14:42;15.50;99.90
26063;DHT22;13837;48.562;12.108;2022-08-21T04:17:07;15.40;99.90
26063;DHT22;13837;48.562;12.108;2022-08-21T04:19:33;15.40;99.90
26063;DHT22;13837;48.562;12.108;2022-08-21T04:21:59;15.30;99.90
26063;DHT22;13837;48.562;12.108;2022-08-21T04:24:25;15.40;99.90
26063;DHT22;13837;48.562;12.108;2022-08-21T04:26:50;15.40;99.90
26063;DHT22;13837;48.562;12.108;2022-08-21T04:29:16;15.30;99.90
26063;DHT22;13837;48.562;12.108;2022-08-21T04:31:41;15.20;99.90
26063;DHT22;13837;48.562;12.108;2022-08-21T04:34:08;15.20;99.90
26063;DHT22;13837;48.562;12.108;2022-08-21T04:36:34;15.20;99.90
26063;DHT22;13837;48.562;12.108;2022-08-21T04:39:00;15.30;99.90
26063;DHT22;13837;48.562;12.108;2022-08-21T04:41:26;15.30;99.90
26063;DHT22;13837;48.562;12.108;2022-08-21T04:43:51;15.20;99.90
26063;DHT22;13837;48.562;12.108;2022-08-21T04:46:17;15.30;99.90
26063;DHT22;13837;48.562;12.108;2022-08-21T04:48:44;15.30;99.90
26063;DHT22;13837;48.562;12.108;2022-08-21T04:51:19;15.30;99.90
26063;DHT22;13837;48.562;12.108;2022-08-21T04:53:58;15.20;99.90
26063;DHT22;13837;48.562;12.108;2022-08-21T05:12:27;15.00;99.90
26063;DHT22;13837;48.562;12.108;2022-08-21T05:14:53;14.90;99.90
26063;DHT22;13837;48.562;12.108;2022-08-21T05:17:19;14.80;99.90
26063;DHT22;13837;48.562;12.108;2022-08-21T05:19:45;14.80;99.90
26063;DHT22;13837;48.562;12.108;2022-08-21T05:22:10;14.90;99.90
26063;DHT22;13837;48.562;12.108;2022-08-21T05:24:36;14.90;99.90
26063;DHT22;13837;48.562;12.108;2022-08-21T05:27:03;15.00;99.90
26063;DHT22;13837;48.562;12.108;2022-08-21T05:29:48;15.00;99.90
26063;DHT22;13837;48.562;12.108;2022-08-21T05:32:14;15.10;99.90
26063;DHT22;13837;48.562;12.108;2022-08-21T05:34:40;15.10;99.90
26063;DHT22;13837;48.562;12.108;2022-08-21T05:37:06;15.10;99.90
26063;DHT22;13837;48.562;12.108;2022-08-21T05:39:32;15.10;99.90
26063;DHT22;13837;48.562;12.108;2022-08-21T05:41:58;15.20;99.90
26063;DHT22;13837;48.562;12.108;2022-08-21T05:44:23;15.10;99.90
26063;DHT22;13837;48.562;12.108;2022-08-21T05:46:49;15.00;99.90
26063;DHT22;13837;48.562;12.108;2022-08-21T05:49:15;14.90;99.90
26063;DHT22;13837;48.562;12.108;2022-08-21T05:51:41;14.90;99.90
26063;DHT22;13837;48.562;12.108;2022-08-21T05:54:07;14.90;99.90
26063;DHT22;13837;48.562;12.108;2022-08-21T05:56:33;14.90;99.90
26063;DHT22;13837;48.562;12.108;2022-08-21T05:58:59;14.80;99.90
26063;DHT22;13837;48.562;12.108;2022-08-21T06:01:25;14.80;99.90
26063;DHT22;13837;48.562;12.108;2022-08-21T06:03:50;14.80;99.90
26063;DHT22;13837;48.562;12.108;2022-08-21T06:06:16;14.90;99.90
26063;DHT22;13837;48.562;12.108;2022-08-21T06:08:42;14.90;99.90
26063;DHT22;13837;48.562;12.108;2022-08-21T06:11:09;14.90;99.90
26063;DHT22;13837;48.562;12.108;2022-08-21T06:13:35;14.90;99.90
26063;DHT22;13837;48.562;12.108;2022-08-21T06:16:10;15.00;99.90
26063;DHT22;13837;48.562;12.108;2022-08-21T06:18:37;15.00;99.90
26063;DHT22;13837;48.562;12.108;2022-08-21T06:21:03;15.00;99.90
26063;DHT22;13837;48.562;12.108;2022-08-21T06:23:30;15.00;99.90
26063;DHT22;13837;48.562;12.108;2022-08-21T06:25:56;15.00;99.90
26063;DHT22;13837;48.562;12.108;2022-08-21T06:28:21;15.10;99.90
26063;DHT22;13837;48.562;12.108;2022-08-21T06:30:47;15.20;99.90
26063;DHT22;13837;48.562;12.108;2022-08-21T06:33:13;15.20;99.90
26063;DHT22;13837;48.562;12.108;2022-08-21T06:35:39;15.10;99.90
26063;DHT22;13837;48.562;12.108;2022-08-21T06:38:05;15.20;99.90
26063;DHT22;13837;48.562;12.108;2022-08-21T06:40:31;15.20;99.90
26063;DHT22;13837;48.562;12.108;2022-08-21T06:43:05;15.20;99.90
26063;DHT22;13837;48.562;12.108;2022-08-21T06:45:32;15.30;99.90
26063;DHT22;13837;48.562;12.108;2022-08-21T06:47:58;15.30;99.90
26063;DHT22;13837;48.562;12.108;2022-08-21T06:50:23;15.30;99.90
26063;DHT22;13837;48.562;12.108;2022-08-21T06:52:49;15.30;99.90
26063;DHT22;13837;48.562;12.108;2022-08-21T06:55:15;15.30;99.90
26063;DHT22;13837;48.562;12.108;2022-08-21T06:57:41;15.30;99.90
26063;DHT22;13837;48.562;12.108;2022-08-21T07:00:07;15.40;99.90
26063;DHT22;13837;48.562;12.108;2022-08-21T07:02:34;15.40;99.90
26063;DHT22;13837;48.562;12.108;2022-08-21T07:05:00;15.40;99.90
26063;DHT22;13837;48.562;12.108;2022-08-21T07:07:26;15.40;99.90
26063;DHT22;13837;48.562;12.108;2022-08-21T07:09:51;15.50;99.90
26063;DHT22;13837;48.562;12.108;2022-08-21T07:12:17;15.50;99.90
26063;DHT22;13837;48.562;12.108;2022-08-21T07:14:43;15.50;99.90
26063;DHT22;13837;48.562;12.108;2022-08-21T07:17:09;15.50;99.90
26063;DHT22;13837;48.562;12.108;2022-08-21T07:19:34;15.60;99.90
26063;DHT22;13837;48.562;12.108;2022-08-21T07:22:01;15.60;99.90
26063;DHT22;13837;48.562;12.108;2022-08-21T07:24:28;15.50;99.90
26063;DHT22;13837;48.562;12.108;2022-08-21T07:26:54;15.60;99.90
26063;DHT22;13837;48.562;12.108;2022-08-21T07:29:20;15.70;99.90
26063;DHT22;13837;48.562;12.108;2022-08-21T07:31:46;15.80;99.90
26063;DHT22;13837;48.562;12.108;2022-08-21T07:34:12;15.80;99.90
26063;DHT22;13837;48.562;12.108;2022-08-21T07:36:37;15.90;99.90
26063;DHT22;13837;48.562;12.108;2022-08-21T07:39:03;16.00;99.90
26063;DHT22;13837;48.562;12.108;2022-08-21T07:41:29;16.00;99.90
26063;DHT22;13837;48.562;12.108;2022-08-21T07:43:56;16.10;99.90
26063;DHT22;13837;48.562;12.108;2022-08-21T07:46:23;16.10;99.90
26063;DHT22;13837;48.562;12.108;2022-08-21T07:48:50;16.20;99.90
26063;DHT22;13837;48.562;12.108;2022-08-21T07:51:16;16.10;99.90
26063;DHT22;13837;48.562;12.108;2022-08-21T07:53:48;16.10;99.90
26063;DHT22;13837;48.562;12.108;2022-08-21T07:56:14;16.10;99.90
26063;DHT22;13837;48.562;12.108;2022-08-21T07:58:40;16.20;99.90
26063;DHT22;13837;48.562;12.108;2022-08-21T08:01:06;16.40;99.90
26063;DHT22;13837;48.562;12.108;2022-08-21T08:03:32;16.40;99.90
26063;DHT22;13837;48.562;12.108;2022-08-21T08:05:57;16.40;99.90
26063;DHT22;13837;48.562;12.108;2022-08-21T08:08:24;16.30;99.90
26063;DHT22;13837;48.562;12.108;2022-08-21T08:10:49;16.40;99.90
26063;DHT22;13837;48.562;12.108;2022-08-21T08:13:16;16.30;99.90
26063;DHT22;13837;48.562;12.108;2022-08-21T08:15:42;16.40;99.90
26063;DHT22;13837;48.562;12.108;2022-08-21T08:18:08;16.50;99.90
26063;DHT22;13837;48.562;12.108;2022-08-21T08:20:52;16.50;99.90
26063;DHT22;13837;48.562;12.108;2022-08-21T08:23:17;16.60;99.90
26063;DHT22;13837;48.562;12.108;2022-08-21T08:25:43;16.50;99.90
26063;DHT22;13837;48.562;12.108;2022-08-21T08:28:09;16.60;99.90
26063;DHT22;13837;48.562;12.108;2022-08-21T08:30:36;16.80;99.90
26063;DHT22;13837;48.562;12.108;2022-08-21T08:33:02;17.00;99.90
26063;DHT22;13837;48.562;12.108;2022-08-21T08:35:27;17.10;99.90
26063;DHT22;13837;48.562;12.108;2022-08-21T08:37:56;17.00;99.90
26063;DHT22;13837;48.562;12.108;2022-08-21T08:40:36;16.90;99.90
26063;DHT22;13837;48.562;12.108;2022-08-21T08:43:04;17.00;99.90
26063;DHT22;13837;48.562;12.108;2022-08-21T08:45:37;17.10;99.90
26063;DHT22;13837;48.562;12.108;2022-08-21T08:48:06;17.20;99.90
26063;DHT22;13837;48.562;12.108;2022-08-21T08:50:55;17.30;99.90
26063;DHT22;13837;48.562;12.108;2022-08-21T08:53:58;17.30;99.90
26063;DHT22;13837;48.562;12.108;2022-08-21T08:56:32;17.40;99.90
26063;DHT22;13837;48.562;12.108;2022-08-21T08:59:05;17.70;99.90
26063;DHT22;13837;48.562;12.108;2022-08-21T09:01:32;18.00;99.90
26063;DHT22;13837;48.562;12.108;2022-08-21T09:03:58;18.20;99.90
26063;DHT22;13837;48.562;12.108;2022-08-21T09:06:51;18.00;99.90
26063;DHT22;13837;48.562;12.108;2022-08-21T09:15:11;18.10;99.90
26063;DHT22;13837;48.562;12.108;2022-08-21T09:21:00;18.40;99.90
26063;DHT22;13837;48.562;12.108;2022-08-21T09:28:56;18.60;99.90
26063;DHT22;13837;48.562;12.108;2022-08-21T09:31:34;18.70;99.90
26063;DHT22;13837;48.562;12.108;2022-08-21T09:34:04;18.60;99.90
26063;DHT22;13837;48.562;12.108;2022-08-21T09:36:47;18.80;99.90
26063;DHT22;13837;48.562;12.108;2022-08-21T09:39:29;19.00;99.90
26063;DHT22;13837;48.562;12.108;2022-08-21T09:42:00;19.00;99.90
26063;DHT22;13837;48.562;12.108;2022-08-21T09:44:31;18.90;99.90
26063;DHT22;13837;48.562;12.108;2022-08-21T09:46:57;19.00;99.90
26063;DHT22;13837;48.562;12.108;2022-08-21T09:49:32;19.20;99.90
26063;DHT22;13837;48.562;12.108;2022-08-21T09:51:58;19.10;99.90
26063;DHT22;13837;48.562;12.108;2022-08-21T09:54:32;19.10;99.90
26063;DHT22;13837;48.562;12.108;2022-08-21T09:59:53;19.40;99.90
26063;DHT22;13837;48.562;12.108;2022-08-21T10:02:31;19.50;99.90
26063;DHT22;13837;48.562;12.108;2022-08-21T10:05:35;19.70;99.90
26063;DHT22;13837;48.562;12.108;2022-08-21T10:07:53;20.20;99.90
26063;DHT22;13837;48.562;12.108;2022-08-21T10:10:22;20.20;99.90
26063;DHT22;13837;48.562;12.108;2022-08-21T10:36:37;20.50;99.90
26063;DHT22;13837;48.562;12.108;2022-08-21T10:39:31;21.00;99.90
26063;DHT22;13837;48.562;12.108;2022-08-21T10:42:21;21.20;99.90
26063;DHT22;13837;48.562;12.108;2022-08-21T10:55:44;20.80;99.90
26063;DHT22;13837;48.562;12.108;2022-08-21T11:00:58;21.70;99.90
26063;DHT22;13837;48.562;12.108;2022-08-21T11:04:00;21.20;99.90
26063;DHT22;13837;48.562;12.108;2022-08-21T11:06:32;21.50;99.90
26063;DHT22;13837;48.562;12.108;2022-08-21T11:28:42;23.30;99.90
26063;DHT22;13837;48.562;12.108;2022-08-21T11:34:22;22.60;99.90
26063;DHT22;13837;48.562;12.108;2022-08-21T11:39:59;23.50;99.90
26063;DHT22;13837;48.562;12.108;2022-08-21T11:43:39;23.50;99.90
26063;DHT22;13837;48.562;12.108;2022-08-21T11:45:53;23.10;99.90
26063;DHT22;13837;48.562;12.108;2022-08-21T11:51:07;22.60;99.90
26063;DHT22;13837;48.562;12.108;2022-08-21T11:56:32;22.90;99.90
26063;DHT22;13837;48.562;12.108;2022-08-21T11:59:05;22.60;99.90
26063;DHT22;13837;48.562;12.108;2022-08-21T12:01:37;22.70;99.90
26063;DHT22;13837;48.562;12.108;2022-08-21T12:04:32;22.70;99.90
26063;DHT22;13837;48.562;12.108;2022-08-21T12:07:15;23.20;99.90
26063;DHT22;13837;48.562;12.108;2022-08-21T12:09:52;23.30;99.90
26063;DHT22;13837;48.562;12.108;2022-08-21T12:12:32;23.60;99.90
26063;DHT22;13837;48.562;12.108;2022-08-21T12:17:37;23.50;99.90
26063;DHT22;13837;48.562;12.108;2022-08-21T12:20:32;23.80;99.90
26063;DHT22;13837;48.562;12.108;2022-08-21T12:25:46;24.10;99.90
26063;DHT22;13837;48.562;12.108;2022-08-21T12:28:15;24.00;99.90
26063;DHT22;13837;48.562;12.108;2022-08-21T12:30:42;23.80;99.90
26063;DHT22;13837;48.562;12.108;2022-08-21T12:33:22;24.00;99.90
26063;DHT22;13837;48.562;12.108;2022-08-21T12:35:49;23.90;99.90
26063;DHT22;13837;48.562;12.108;2022-08-21T12:39:11;24.30;99.90
26063;DHT22;13837;48.562;12.108;2022-08-21T12:44:17;24.40;99.90
26063;DHT22;13837;48.562;12.108;2022-08-21T12:47:01;24.40;99.90
26063;DHT22;13837;48.562;12.108;2022-08-21T12:49:37;24.20;99.90
26063;DHT22;13837;48.562;12.108;2022-08-21T12:52:27;24.20;99.90
26063;DHT22;13837;48.562;12.108;2022-08-21T12:54:59;24.60;99.90
26063;DHT22;13837;48.562;12.108;2022-08-21T12:57:27;24.90;99.90
26063;DHT22;13837;48.562;12.108;2022-08-21T12:59:58;24.00;99.90
26063;DHT22;13837;48.562;12.108;2022-08-21T13:02:29;23.70;99.90
26063;DHT22;13837;48.562;12.108;2022-08-21T13:04:57;23.80;99.90
26063;DHT22;13837;48.562;12.108;2022-08-21T13:07:29;24.00;99.90
26063;DHT22;13837;48.562;12.108;2022-08-21T13:10:06;23.60;99.90
26063;DHT22;13837;48.562;12.108;2022-08-21T13:12:38;23.60;99.90
26063;DHT22;13837;48.562;12.108;2022-08-21T13:15:08;23.90;99.90
26063;DHT22;13837;48.562;12.108;2022-08-21T13:17:38;24.70;99.90
26063;DHT22;13837;48.562;12.108;2022-08-21T13:20:27;24.60;99.90
26063;DHT22;13837;48.562;12.108;2022-08-21T13:22:53;24.20;99.90
26063;DHT22;13837;48.562;12.108;2022-08-21T13:25:25;24.20;99.90
26063;DHT22;13837;48.562;12.108;2022-08-21T13:30:31;24.70;99.90
26063;DHT22;13837;48.562;12.108;2022-08-21T13:33:00;25.10;99.90
26063;DHT22;13837;48.562;12.108;2022-08-21T13:36:16;25.00;99.90
26063;DHT22;13837;48.562;12.108;2022-08-21T13:38:44;25.00;99.90
26063;DHT22;13837;48.562;12.108;2022-08-21T13:43:49;25.30;99.90
26063;DHT22;13837;48.562;12.108;2022-08-21T13:46:17;25.60;99.90
26063;DHT22;13837;48.562;12.108;2022-08-21T13:48:45;26.10;99.90
26063;DHT22;13837;48.562;12.108;2022-08-21T13:51:11;25.30;99.90
26063;DHT22;13837;48.562;12.108;2022-08-21T13:53:47;25.60;99.90
26063;DHT22;13837;48.562;12.108;2022-08-21T13:56:40;25.70;99.90
26063;DHT22;13837;48.562;12.108;2022-08-21T13:59:06;25.20;99.90
26063;DHT22;13837;48.562;12.108;2022-08-21T14:20:33;25.70;99.90
26063;DHT22;13837;48.562;12.108;2022-08-21T14:22:59;25.50;99.90
26063;DHT22;13837;48.562;12.108;2022-08-21T14:27:56;26.40;99.90
26063;DHT22;13837;48.562;12.108;2022-08-21T14:30:34;26.20;99.90
26063;DHT22;13837;48.562;12.108;2022-08-21T14:33:02;25.90;99.90
26063;DHT22;13837;48.562;12.108;2022-08-21T14:35:28;26.00;99.90
26063;DHT22;13837;48.562;12.108;2022-08-21T14:37:54;26.10;99.90
26063;DHT22;13837;48.562;12.108;2022-08-21T14:40:22;26.50;99.90
26063;DHT22;13837;48.562;12.108;2022-08-21T14:42:48;26.00;99.90
26063;DHT22;13837;48.562;12.108;2022-08-21T14:47:45;25.60;99.90
26063;DHT22;13837;48.562;12.108;2022-08-21T14:50:12;25.50;99.90
26063;DHT22;13837;48.562;12.108;2022-08-21T15:11:42;25.40;99.90
26063;DHT22;13837;48.562;12.108;2022-08-21T15:14:20;25.70;99.90
26063;DHT22;13837;48.562;12.108;2022-08-21T15:16:46;26.20;99.90
26063;DHT22;13837;48.562;12.108;2022-08-21T15:19:12;26.30;99.90
26063;DHT22;13837;48.562;12.108;2022-08-21T15:22:00;26.60;99.90
26063;DHT22;13837;48.562;12.108;2022-08-21T15:24:26;26.00;99.90
26063;DHT22;13837;48.562;12.108;2022-08-21T15:26:54;25.90;99.90
26063;DHT22;13837;48.562;12.108;2022-08-21T15:29:20;26.10;99.90
26063;DHT22;13837;48.562;12.108;2022-08-21T15:34:44;26.00;99.90
26063;DHT22;13837;48.562;12.108;2022-08-21T15:37:10;25.90;99.90
26063;DHT22;13837;48.562;12.108;2022-08-21T15:39:36;25.30;99.90
26063;DHT22;13837;48.562;12.108;2022-08-21T16:18:19;24.30;99.90
26063;DHT22;13837;48.562;12.108;2022-08-21T16:20:45;24.20;99.90
26063;DHT22;13837;48.562;12.108;2022-08-21T16:23:11;24.30;99.90
26063;DHT22;13837;48.562;12.108;2022-08-21T16:25:38;24.60;99.90
26063;DHT22;13837;48.562;12.108;2022-08-21T16:28:06;24.50;99.90
26063;DHT22;13837;48.562;12.108;2022-08-21T16:30:33;24.40;99.90
26063;DHT22;13837;48.562;12.108;2022-08-21T16:33:00;24.30;99.90
26063;DHT22;13837;48.562;12.108;2022-08-21T16:35:26;24.00;99.90
26063;DHT22;13837;48.562;12.108;2022-08-21T16:43:40;24.20;99.90
26063;DHT22;13837;48.562;12.108;2022-08-21T16:46:08;24.40;99.90
26063;DHT22;13837;48.562;12.108;2022-08-21T16:48:35;24.50;99.90
26063;DHT22;13837;48.562;12.108;2022-08-21T16:51:00;24.50;99.90
26063;DHT22;13837;48.562;12.108;2022-08-21T16:53:26;24.10;99.90
26063;DHT22;13837;48.562;12.108;2022-08-21T16:55:52;24.00;99.90
26063;DHT22;13837;48.562;12.108;2022-08-21T16:58:32;24.00;99.90
26063;DHT22;13837;48.562;12.108;2022-08-21T17:00:59;23.90;99.90
26063;DHT22;13837;48.562;12.108;2022-08-21T17:03:30;23.70;99.90
26063;DHT22;13837;48.562;12.108;2022-08-21T17:05:58;23.80;99.90
26063;DHT22;13837;48.562;12.108;2022-08-21T17:08:24;23.70;99.90
26063;DHT22;13837;48.562;12.108;2022-08-21T17:10:50;23.80;99.90
26063;DHT22;13837;48.562;12.108;2022-08-21T17:13:16;24.10;99.90
26063;DHT22;13837;48.562;12.108;2022-08-21T17:15:42;24.10;99.90
26063;DHT22;13837;48.562;12.108;2022-08-21T17:18:17;24.00;99.90
26063;DHT22;13837;48.562;12.108;2022-08-21T17:20:43;23.70;99.90
26063;DHT22;13837;48.562;12.108;2022-08-21T17:23:09;23.80;99.90
26063;DHT22;13837;48.562;12.108;2022-08-21T17:25:37;23.80;99.90
26063;DHT22;13837;48.562;12.108;2022-08-21T17:28:04;24.00;99.90
26063;DHT22;13837;48.562;12.108;2022-08-21T17:30:30;24.20;99.90
26063;DHT22;13837;48.562;12.108;2022-08-21T17:32:56;24.10;99.90
26063;DHT22;13837;48.562;12.108;2022-08-21T17:35:23;24.20;99.90
26063;DHT22;13837;48.562;12.108;2022-08-21T17:37:49;24.00;99.90
26063;DHT22;13837;48.562;12.108;2022-08-21T17:40:16;23.60;99.90
26063;DHT22;13837;48.562;12.108;2022-08-21T17:42:43;23.10;99.90
26063;DHT22;13837;48.562;12.108;2022-08-21T17:45:11;22.60;99.90
26063;DHT22;13837;48.562;12.108;2022-08-21T17:47:37;22.40;99.90
26063;DHT22;13837;48.562;12.108;2022-08-21T17:50:05;22.20;99.90
26063;DHT22;13837;48.562;12.108;2022-08-21T17:52:30;22.10;99.90
26063;DHT22;13837;48.562;12.108;2022-08-21T17:54:56;21.90;99.90
26063;DHT22;13837;48.562;12.108;2022-08-21T17:57:23;21.80;99.90
26063;DHT22;13837;48.562;12.108;2022-08-21T17:59:53;21.80;99.90
26063;DHT22;13837;48.562;12.108;2022-08-21T18:02:19;21.90;99.90
26063;DHT22;13837;48.562;12.108;2022-08-21T18:04:46;22.10;99.90
26063;DHT22;13837;48.562;12.108;2022-08-21T18:07:12;21.70;99.90
26063;DHT22;13837;48.562;12.108;2022-08-21T18:09:38;21.70;99.90
26063;DHT22;13837;48.562;12.108;2022-08-21T18:12:04;21.50;99.90
26063;DHT22;13837;48.562;12.108;2022-08-21T18:14:33;21.30;99.90
26063;DHT22;13837;48.562;12.108;2022-08-21T18:16:59;20.90;99.90
26063;DHT22;13837;48.562;12.108;2022-08-21T18:19:25;20.60;99.90
26063;DHT22;13837;48.562;12.108;2022-08-21T18:21:54;20.50;99.90
26063;DHT22;13837;48.562;12.108;2022-08-21T18:24:20;20.60;99.90
26063;DHT22;13837;48.562;12.108;2022-08-21T18:26:46;20.80;99.90
26063;DHT22;13837;48.562;12.108;2022-08-21T18:29:14;20.90;99.90
26063;DHT22;13837;48.562;12.108;2022-08-21T18:31:42;20.60;99.90
26063;DHT22;13837;48.562;12.108;2022-08-21T18:34:33;20.30;99.90
26063;DHT22;13837;48.562;12.108;2022-08-21T18:37:01;19.70;99.90
26063;DHT22;13837;48.562;12.108;2022-08-21T18:39:28;19.50;99.90
26063;DHT22;13837;48.562;12.108;2022-08-21T18:41:55;19.20;99.90
26063;DHT22;13837;48.562;12.108;2022-08-21T18:44:22;19.00;99.90
26063;DHT22;13837;48.562;12.108;2022-08-21T18:46:59;18.90;99.90
26063;DHT22;13837;48.562;12.108;2022-08-21T18:49:26;18.70;99.90
26063;DHT22;13837;48.562;12.108;2022-08-21T18:51:52;18.50;99.90
26063;DHT22;13837;48.562;12.108;2022-08-21T18:54:19;18.40;99.90
26063;DHT22;13837;48.562;12.108;2022-08-21T18:56:47;18.30;99.90
26063;DHT22;13837;48.562;12.108;2022-08-21T19:01:55;17.90;99.90
26063;DHT22;13837;48.562;12.108;2022-08-21T19:04:22;17.90;99.90
26063;DHT22;13837;48.562;12.108;2022-08-21T19:06:47;17.90;99.90
26063;DHT22;13837;48.562;12.108;2022-08-21T19:09:13;17.70;99.90